createdAt,value
2017-04-03T00:01:02.936Z,10.90
2017-04-03T00:02:08.577Z,10.90
2017-04-03T00:03:14.009Z,10.90
2017-04-03T00:04:19.581Z,10.90
2017-04-03T00:05:25.929Z,11.00
2017-04-03T00:06:30.790Z,10.90
2017-04-03T00:07:36.389Z,10.90
2017-04-03T00:08:41.906Z,10.90
2017-04-03T00:09:47.445Z,10.90
2017-04-03T00:10:52.057Z,10.90
2017-04-03T00:11:58.365Z,10.90
2017-04-03T00:13:03.880Z,10.90
2017-04-03T00:14:08.748Z,10.90
2017-04-03T00:15:14.126Z,10.80
2017-04-03T00:16:20.553Z,10.70
2017-04-03T00:17:25.349Z,10.70
2017-04-03T00:18:31.674Z,10.60
2017-04-03T00:19:36.466Z,10.60
2017-04-03T00:20:42.199Z,10.60
2017-04-03T00:21:48.245Z,10.70
2017-04-03T00:22:53.850Z,10.70
2017-04-03T00:23:58.752Z,10.70
2017-04-03T00:25:05.121Z,10.70
2017-04-03T00:26:10.709Z,10.70
2017-04-03T00:27:15.612Z,10.60
2017-04-03T00:28:21.125Z,10.70
2017-04-03T00:29:27.305Z,10.80
2017-04-03T00:30:32.123Z,10.80
2017-04-03T00:31:37.760Z,10.80
2017-04-03T00:32:43.369Z,10.80
2017-04-03T00:33:49.726Z,10.70
2017-04-03T00:34:54.682Z,10.70
2017-04-03T00:36:00.157Z,10.80
2017-04-03T00:37:06.545Z,10.80
2017-04-03T00:38:11.324Z,10.70
2017-04-03T00:39:16.940Z,10.70
2017-04-03T00:40:23.481Z,10.60
2017-04-03T00:41:28.910Z,10.60
2017-04-03T00:42:33.584Z,10.50
2017-04-03T00:43:39.957Z,10.50
2017-04-03T00:44:44.683Z,10.50
2017-04-03T00:45:50.537Z,10.50
2017-04-03T00:46:55.786Z,10.50
2017-04-03T00:48:02.124Z,10.50
2017-04-03T00:49:06.870Z,10.50
2017-04-03T00:50:12.594Z,10.50
2017-04-03T00:51:18.089Z,10.50
2017-04-03T00:52:24.477Z,10.40
2017-04-03T00:53:30.073Z,10.50
2017-04-03T00:54:34.909Z,10.40
2017-04-03T00:55:40.326Z,10.50
2017-04-03T00:56:46.706Z,10.60
2017-04-03T00:57:52.269Z,10.60
2017-04-03T00:58:57.106Z,10.50
2017-04-03T01:00:03.292Z,10.50
2017-04-03T01:01:08.138Z,10.50
2017-04-03T01:02:13.997Z,10.60
2017-04-03T01:03:20.142Z,10.60
2017-04-03T01:04:25.784Z,10.60
2017-04-03T01:05:30.578Z,10.50
2017-04-03T01:06:36.927Z,10.60
2017-04-03T01:07:41.849Z,10.60
2017-04-03T01:08:47.410Z,10.60
2017-04-03T01:09:53.022Z,10.70
2017-04-03T01:11:00.049Z,10.70
2017-04-03T01:12:05.177Z,10.60
2017-04-03T01:13:10.766Z,10.70
2017-04-03T01:14:15.449Z,10.70
2017-04-03T01:15:21.593Z,10.60
2017-04-03T01:16:26.748Z,10.70
2017-04-03T01:17:31.585Z,10.70
2017-04-03T01:18:37.102Z,10.70
2017-04-03T01:19:42.658Z,10.70
2017-04-03T01:20:48.312Z,10.60
2017-04-03T01:21:54.537Z,10.70
2017-04-03T01:22:59.216Z,10.60
2017-04-03T01:24:05.777Z,10.70
2017-04-03T01:25:12.144Z,10.70
2017-04-03T01:26:17.774Z,10.70
2017-04-03T01:27:23.461Z,10.60
2017-04-03T01:28:29.049Z,10.70
2017-04-03T01:29:36.506Z,10.70
2017-04-03T01:30:41.349Z,10.70
2017-04-03T01:31:46.807Z,10.70
2017-04-03T01:32:52.428Z,10.70
2017-04-03T01:33:57.890Z,10.60
2017-04-03T01:35:04.216Z,10.60
2017-04-03T01:36:08.983Z,10.60
2017-04-03T01:37:13.733Z,10.70
2017-04-03T01:38:19.259Z,10.70
2017-04-03T01:39:24.704Z,10.80
2017-04-03T01:40:30.117Z,10.80
2017-04-03T01:41:35.674Z,10.80
2017-04-03T01:42:41.134Z,10.70
2017-04-03T01:43:47.491Z,10.60
2017-04-03T01:44:52.338Z,10.60
2017-04-03T01:45:57.897Z,10.60
2017-04-03T01:47:02.660Z,10.50
2017-04-03T01:48:08.337Z,10.50
2017-04-03T01:49:13.974Z,10.60
2017-04-03T01:50:20.481Z,10.50
2017-04-03T01:51:25.288Z,10.50
2017-04-03T01:52:30.825Z,10.50
2017-04-03T01:53:36.437Z,10.40
2017-04-03T01:54:42.689Z,10.50
2017-04-03T01:55:48.293Z,10.50
2017-04-03T01:56:53.119Z,10.40
2017-04-03T01:57:58.597Z,10.40
2017-04-03T01:59:04.138Z,10.40
2017-04-03T02:00:09.670Z,10.40
2017-04-03T02:01:14.404Z,10.30
2017-04-03T02:02:20.787Z,10.40
2017-04-03T02:03:25.623Z,10.30
2017-04-03T02:04:31.901Z,10.40
2017-04-03T02:05:37.453Z,10.30
2017-04-03T02:06:42.983Z,10.30
2017-04-03T02:07:48.647Z,10.30
2017-04-03T02:08:53.340Z,10.20
2017-04-03T02:09:58.994Z,10.20
2017-04-03T02:11:04.596Z,10.20
2017-04-03T02:12:10.972Z,10.20
2017-04-03T02:13:16.233Z,10.20
2017-04-03T02:14:21.352Z,10.20
2017-04-03T02:15:26.981Z,10.20
2017-04-03T02:16:32.533Z,10.20
2017-04-03T02:17:38.149Z,10.10
2017-04-03T02:18:43.726Z,10.10
2017-04-03T02:19:50.012Z,10.10
2017-04-03T02:20:55.607Z,10.10
2017-04-03T02:22:00.688Z,10.10
2017-04-03T02:23:06.197Z,10.10
2017-04-03T02:24:12.632Z,10.10
2017-04-03T02:25:17.373Z,10.00
2017-04-03T02:26:22.966Z,10.10
2017-04-03T02:27:27.749Z,10.00
2017-04-03T02:28:33.133Z,10.10
2017-04-03T02:29:38.848Z,10.10
2017-04-03T02:30:44.320Z,10.10
2017-04-03T02:31:49.924Z,10.10
2017-04-03T02:32:56.362Z,10.10
2017-04-03T02:34:01.165Z,10.00
2017-04-03T02:35:06.011Z,10.10
2017-04-03T02:36:11.530Z,10.10
2017-04-03T02:37:17.095Z,10.00
2017-04-03T02:38:22.617Z,10.00
2017-04-03T02:39:28.188Z,10.10
2017-04-03T02:40:33.864Z,10.00
2017-04-03T02:41:39.263Z,10.00
2017-04-03T02:42:44.913Z,10.00
2017-04-03T02:43:51.213Z,10.00
2017-04-03T02:44:55.984Z,10.00
2017-04-03T02:46:01.692Z,10.00
2017-04-03T02:47:07.911Z,10.00
2017-04-03T02:48:13.488Z,9.90
2017-04-03T02:49:18.343Z,9.90
2017-04-03T02:50:23.940Z,10.00
2017-04-03T02:51:30.323Z,10.00
2017-04-03T02:52:35.784Z,10.00
2017-04-03T02:53:40.561Z,10.00
2017-04-03T02:54:46.135Z,10.00
2017-04-03T02:55:50.837Z,9.90
2017-04-03T02:56:56.485Z,9.90
2017-04-03T02:58:02.053Z,9.90
2017-04-03T02:59:08.015Z,9.90
2017-04-03T03:00:13.213Z,9.90
2017-04-03T03:01:19.547Z,9.90
2017-04-03T03:02:24.373Z,9.90
2017-04-03T03:03:29.957Z,10.00
2017-04-03T03:04:35.509Z,10.00
2017-04-03T03:05:41.138Z,10.00
2017-04-03T03:06:46.595Z,9.90
2017-04-03T03:07:51.564Z,9.80
2017-04-03T03:08:56.973Z,9.90
2017-04-03T03:10:02.495Z,9.90
2017-04-03T03:11:07.198Z,9.90
2017-04-03T03:12:12.793Z,10.00
2017-04-03T03:13:18.325Z,9.90
2017-04-03T03:14:24.647Z,9.90
2017-04-03T03:15:29.570Z,9.90
2017-04-03T03:16:35.100Z,9.80
2017-04-03T03:17:41.528Z,9.80
2017-04-03T03:18:46.474Z,9.80
2017-04-03T03:19:51.937Z,9.80
2017-04-03T03:20:57.456Z,10.00
2017-04-03T03:22:02.287Z,9.90
2017-04-03T03:23:08.476Z,9.90
2017-04-03T03:24:13.333Z,9.90
2017-04-03T03:25:18.810Z,9.90
2017-04-03T03:26:24.269Z,9.80
2017-04-03T03:27:28.991Z,9.80
2017-04-03T03:28:34.432Z,9.80
2017-04-03T03:29:40.641Z,9.90
2017-04-03T03:30:46.229Z,9.90
2017-04-03T03:31:51.783Z,9.90
2017-04-03T03:32:56.582Z,9.90
2017-04-03T03:34:01.306Z,9.90
2017-04-03T03:35:07.596Z,9.80
2017-04-03T03:36:13.116Z,9.70
2017-04-03T03:37:17.884Z,9.70
2017-04-03T03:38:23.542Z,9.70
2017-04-03T03:39:29.794Z,9.70
2017-04-03T03:40:34.713Z,9.60
2017-04-03T03:41:39.410Z,9.80
2017-04-03T03:42:45.675Z,9.80
2017-04-03T03:43:51.445Z,9.90
2017-04-03T03:44:57.093Z,9.90
2017-04-03T03:46:02.650Z,9.80
2017-04-03T03:47:08.233Z,9.80
2017-04-03T03:48:13.793Z,9.80
2017-04-03T03:49:18.564Z,9.70
2017-04-03T03:50:24.177Z,9.70
2017-04-03T03:51:29.018Z,9.60
2017-04-03T03:52:35.194Z,9.60
2017-04-03T03:53:40.192Z,9.50
2017-04-03T03:54:46.541Z,9.60
2017-04-03T03:55:56.519Z,9.60
2017-04-03T03:59:11.932Z,9.60
2017-04-03T04:00:16.829Z,9.60
2017-04-03T04:01:22.426Z,9.60
2017-04-03T04:02:28.830Z,9.60
2017-04-03T04:03:33.787Z,9.50
2017-04-03T04:04:39.458Z,9.50
2017-04-03T04:05:44.953Z,9.50
2017-04-03T04:06:51.309Z,9.50
2017-04-03T04:07:56.730Z,9.40
2017-04-03T04:09:02.346Z,9.40
2017-04-03T04:10:07.125Z,9.40
2017-04-03T04:11:12.546Z,9.50
2017-04-03T04:12:18.058Z,9.50
2017-04-03T04:13:22.816Z,9.50
2017-04-03T04:14:28.443Z,9.50
2017-04-03T04:15:34.096Z,9.50
2017-04-03T04:16:39.581Z,9.50
2017-04-03T04:17:45.934Z,9.50
2017-04-03T04:18:50.741Z,9.50
2017-04-03T04:19:56.379Z,9.50
2017-04-03T04:21:02.246Z,9.40
2017-04-03T04:22:08.305Z,9.30
2017-04-03T04:23:13.941Z,9.20
2017-04-03T04:24:19.541Z,9.20
2017-04-03T04:25:25.869Z,9.20
2017-04-03T04:26:31.550Z,9.20
2017-04-03T04:27:37.070Z,9.20
2017-04-03T04:28:42.011Z,9.20
2017-04-03T04:29:48.389Z,9.20
2017-04-03T04:30:53.127Z,9.10
2017-04-03T04:32:00.474Z,9.10
2017-04-03T04:33:06.035Z,9.10
2017-04-03T04:34:10.806Z,9.10
2017-04-03T04:35:17.315Z,9.10
2017-04-03T04:36:22.017Z,9.00
2017-04-03T04:37:28.560Z,9.00
2017-04-03T04:38:34.202Z,9.00
2017-04-03T04:39:40.562Z,9.10
2017-04-03T04:40:46.182Z,9.10
2017-04-03T04:41:51.863Z,9.10
2017-04-03T04:42:56.834Z,9.00
2017-04-03T04:44:02.889Z,9.20
2017-04-03T04:45:07.725Z,9.20
2017-04-03T04:46:12.422Z,9.20
2017-04-03T04:47:18.013Z,9.20
2017-04-03T04:48:23.573Z,9.20
2017-04-03T04:49:29.773Z,9.20
2017-04-03T04:50:34.599Z,9.20
2017-04-03T04:51:40.029Z,9.30
2017-04-03T04:52:45.667Z,9.30
2017-04-03T04:53:50.468Z,9.30
2017-04-03T04:54:55.885Z,9.30
2017-04-03T04:56:01.434Z,9.30
2017-04-03T04:57:07.101Z,9.30
2017-04-03T04:58:11.774Z,9.30
2017-04-03T04:59:18.057Z,9.10
2017-04-03T05:00:23.735Z,9.10
2017-04-03T05:01:28.465Z,9.00
2017-04-03T05:02:33.934Z,9.10
2017-04-03T05:03:38.785Z,9.00
2017-04-03T05:04:43.538Z,9.10
2017-04-03T05:05:49.001Z,9.10
2017-04-03T05:06:55.384Z,9.00
2017-04-03T05:08:00.162Z,9.00
2017-04-03T05:09:06.134Z,9.10
2017-04-03T05:10:11.481Z,9.20
2017-04-03T05:11:17.081Z,9.30
2017-04-03T05:12:23.458Z,9.20
2017-04-03T05:13:28.298Z,9.20
2017-04-03T05:14:33.825Z,9.20
2017-04-03T05:15:40.218Z,9.30
2017-04-03T05:16:44.957Z,9.20
2017-04-03T05:17:50.446Z,9.30
2017-04-03T05:18:56.003Z,9.30
2017-04-03T05:20:01.554Z,9.20
2017-04-03T05:21:07.355Z,9.20
2017-04-03T05:22:12.637Z,9.20
2017-04-03T05:23:17.361Z,9.10
2017-04-03T05:24:22.953Z,9.10
2017-04-03T05:25:28.382Z,9.00
2017-04-03T05:26:33.251Z,9.00
2017-04-03T05:27:38.799Z,9.00
2017-04-03T05:28:44.376Z,9.00
2017-04-03T05:29:49.961Z,9.10
2017-04-03T05:30:56.142Z,9.10
2017-04-03T05:32:00.997Z,9.10
2017-04-03T05:33:06.574Z,9.10
2017-04-03T05:34:12.049Z,9.10
2017-04-03T05:35:17.741Z,9.10
2017-04-03T05:36:24.067Z,8.90
2017-04-03T05:37:29.072Z,8.90
2017-04-03T05:38:34.598Z,9.00
2017-04-03T05:39:39.278Z,9.00
2017-04-03T05:40:44.893Z,9.00
2017-04-03T05:41:50.320Z,9.00
2017-04-03T05:42:55.153Z,8.90
2017-04-03T05:44:01.486Z,9.00
2017-04-03T05:45:06.345Z,9.00
2017-04-03T05:46:11.962Z,9.00
2017-04-03T05:47:18.293Z,9.10
2017-04-03T05:48:23.340Z,9.00
2017-04-03T05:49:28.934Z,9.00
2017-04-03T05:50:34.581Z,9.10
2017-04-03T05:51:40.126Z,9.20
2017-04-03T05:52:47.293Z,9.20
2017-04-03T05:53:53.205Z,9.30
2017-04-03T05:54:58.013Z,9.20
2017-04-03T05:56:03.517Z,9.30
2017-04-03T05:57:09.177Z,9.30
2017-04-03T05:58:13.879Z,9.40
2017-04-03T05:59:20.253Z,9.50
2017-04-03T06:00:25.922Z,9.70
2017-04-03T06:01:30.645Z,9.60
2017-04-03T06:02:35.493Z,9.60
2017-04-03T06:03:41.149Z,9.80
2017-04-03T06:04:46.729Z,9.70
2017-04-03T06:05:53.238Z,9.60
2017-04-03T06:06:58.077Z,9.60
2017-04-03T06:08:04.449Z,9.40
2017-04-03T06:09:09.406Z,9.40
2017-04-03T06:10:14.130Z,9.30
2017-04-03T06:11:20.526Z,9.30
2017-04-03T06:12:26.006Z,9.30
2017-04-03T06:13:31.780Z,9.30
2017-04-03T06:14:36.639Z,9.30
2017-04-03T06:15:42.297Z,9.50
2017-04-03T06:16:47.913Z,9.50
2017-04-03T06:17:53.386Z,9.60
2017-04-03T06:18:58.165Z,9.50
2017-04-03T06:20:02.913Z,9.60
2017-04-03T06:21:08.689Z,9.70
2017-04-03T06:22:14.113Z,9.60
2017-04-03T06:23:19.672Z,9.60
2017-04-03T06:24:24.398Z,9.50
2017-04-03T06:25:29.885Z,9.60
2017-04-03T06:26:35.596Z,9.60
2017-04-03T06:27:40.317Z,9.60
2017-04-03T06:28:45.690Z,9.80
2017-04-03T06:29:50.525Z,9.80
2017-04-03T06:30:56.917Z,9.90
2017-04-03T06:32:03.528Z,9.90
2017-04-03T06:33:08.444Z,9.90
2017-04-03T06:34:14.782Z,10.10
2017-04-03T06:35:19.500Z,10.10
2017-04-03T06:36:25.057Z,10.30
2017-04-03T06:37:30.783Z,10.50
2017-04-03T06:38:36.249Z,10.40
2017-04-03T06:39:42.628Z,10.10
2017-04-03T06:40:48.897Z,10.00
2017-04-03T06:41:54.010Z,10.00
2017-04-03T06:42:58.777Z,10.00
2017-04-03T06:44:04.369Z,10.00
2017-04-03T06:45:10.840Z,10.10
2017-04-03T06:46:16.038Z,10.10
2017-04-03T06:47:21.350Z,10.10
2017-04-03T06:48:26.873Z,10.20
2017-04-03T06:49:31.493Z,10.20
2017-04-03T06:50:36.220Z,10.30
2017-04-03T06:51:40.861Z,10.30
2017-04-03T06:52:47.170Z,10.30
2017-04-03T06:53:53.113Z,10.30
2017-04-03T06:54:57.902Z,10.30
2017-04-03T06:56:04.337Z,10.50
2017-04-03T06:57:09.261Z,10.40
2017-04-03T06:58:14.907Z,10.70
2017-04-03T06:59:22.425Z,10.60
2017-04-03T07:00:27.141Z,10.50
2017-04-03T07:01:31.832Z,10.60
2017-04-03T07:02:42.032Z,10.70
2017-04-03T07:03:47.914Z,10.90
2017-04-03T07:04:52.880Z,10.90
2017-04-03T07:05:58.490Z,11.00
2017-04-03T07:07:04.870Z,11.20
2017-04-03T07:08:10.593Z,11.20
2017-04-03T07:09:15.578Z,11.10
2017-04-03T07:10:21.033Z,11.00
2017-04-03T07:11:27.413Z,11.10
2017-04-03T07:12:32.201Z,11.10
2017-04-03T07:13:38.512Z,11.10
2017-04-03T07:14:44.307Z,11.10
2017-04-03T07:15:50.081Z,11.20
2017-04-03T07:16:55.691Z,11.10
2017-04-03T07:18:00.374Z,11.10
2017-04-03T07:19:06.662Z,11.00
2017-04-03T07:20:11.385Z,11.00
2017-04-03T07:21:17.929Z,11.10
2017-04-03T07:22:23.453Z,11.10
2017-04-03T07:23:29.758Z,11.20
2017-04-03T07:24:35.011Z,11.20
2017-04-03T07:25:40.452Z,11.40
2017-04-03T07:26:45.356Z,11.50
2017-04-03T07:27:50.104Z,11.50
2017-04-03T07:28:55.724Z,11.40
2017-04-03T07:30:02.113Z,11.40
2017-04-03T07:31:07.038Z,11.30
2017-04-03T07:32:13.413Z,11.40
2017-04-03T07:33:18.149Z,11.40
2017-04-03T07:34:23.734Z,11.60
2017-04-03T07:35:28.652Z,11.50
2017-04-03T07:36:34.948Z,11.80
2017-04-03T07:37:40.760Z,11.80
2017-04-03T07:38:46.278Z,11.80
2017-04-03T07:39:51.917Z,11.70
2017-04-03T07:40:57.529Z,11.70
2017-04-03T07:42:03.121Z,11.70
2017-04-03T07:43:07.989Z,11.70
2017-04-03T07:44:14.394Z,11.80
2017-04-03T07:45:20.138Z,11.80
2017-04-03T07:46:25.702Z,11.80
2017-04-03T07:47:31.409Z,11.70
2017-04-03T07:48:36.361Z,11.70
2017-04-03T07:49:41.889Z,11.80
2017-04-03T07:50:48.292Z,12.00
2017-04-03T07:51:53.868Z,11.90
2017-04-03T07:52:59.572Z,12.00
2017-04-03T07:54:04.545Z,11.90
2017-04-03T07:55:10.881Z,12.00
2017-04-03T07:56:15.737Z,12.00
2017-04-03T07:57:22.016Z,12.10
2017-04-03T07:58:27.621Z,12.10
2017-04-03T07:59:34.357Z,12.20
2017-04-03T08:00:40.021Z,12.20
2017-04-03T08:01:44.802Z,12.20
2017-04-03T08:02:51.222Z,12.40
2017-04-03T08:03:55.953Z,12.30
2017-04-03T08:05:02.406Z,12.50
2017-04-03T08:06:08.017Z,12.40
2017-04-03T08:07:13.857Z,12.40
2017-04-03T08:08:18.661Z,12.40
2017-04-03T08:09:24.217Z,12.40
2017-04-03T08:10:29.652Z,12.50
2017-04-03T08:11:34.670Z,12.40
2017-04-03T08:12:40.209Z,12.50
2017-04-03T08:13:46.557Z,12.50
2017-04-03T08:14:51.599Z,12.50
2017-04-03T08:15:58.166Z,12.60
2017-04-03T08:17:04.629Z,12.60
2017-04-03T08:18:09.472Z,12.60
2017-04-03T08:19:15.020Z,12.60
2017-04-03T08:20:21.545Z,12.80
2017-04-03T08:21:28.194Z,12.80
2017-04-03T08:22:33.002Z,12.80
2017-04-03T08:23:38.505Z,13.00
2017-04-03T08:24:44.158Z,12.90
2017-04-03T08:25:49.829Z,12.80
2017-04-03T08:26:56.252Z,13.00
2017-04-03T08:28:01.729Z,13.00
2017-04-03T08:29:07.343Z,13.10
2017-04-03T08:30:12.895Z,13.00
2017-04-03T08:31:17.565Z,12.90
2017-04-03T08:32:23.850Z,12.80
2017-04-03T08:33:29.501Z,12.90
2017-04-03T08:34:35.109Z,12.90
2017-04-03T08:35:40.665Z,12.90
2017-04-03T08:36:45.584Z,12.90
2017-04-03T08:37:52.084Z,13.00
2017-04-03T08:38:56.994Z,13.00
2017-04-03T08:40:03.385Z,13.20
2017-04-03T08:41:08.984Z,13.10
2017-04-03T08:42:13.906Z,13.00
2017-04-03T08:43:19.573Z,13.20
2017-04-03T08:44:25.874Z,13.10
2017-04-03T08:45:30.727Z,13.10
2017-04-03T08:46:36.213Z,13.10
2017-04-03T08:47:41.713Z,13.20
2017-04-03T08:48:48.337Z,13.40
2017-04-03T08:49:54.767Z,13.40
2017-04-03T08:51:00.418Z,13.40
2017-04-03T08:52:05.281Z,13.30
2017-04-03T08:53:10.893Z,13.40
2017-04-03T08:54:17.278Z,13.30
2017-04-03T08:55:21.952Z,13.20
2017-04-03T08:56:28.308Z,13.30
2017-04-03T08:57:33.932Z,13.40
2017-04-03T08:58:38.853Z,13.40
2017-04-03T08:59:46.156Z,13.50
2017-04-03T09:00:50.933Z,13.40
2017-04-03T09:01:57.346Z,13.60
2017-04-03T09:03:02.226Z,13.60
2017-04-03T09:04:06.928Z,13.60
2017-04-03T09:05:12.509Z,13.80
2017-04-03T09:06:18.106Z,13.80
2017-04-03T09:07:23.718Z,13.80
2017-04-03T09:08:28.465Z,13.80
2017-04-03T09:09:34.911Z,13.90
2017-04-03T09:10:39.677Z,13.90
2017-04-03T09:11:45.246Z,13.90
2017-04-03T09:12:50.000Z,14.00
2017-04-03T09:13:56.357Z,14.00
2017-04-03T09:15:02.117Z,14.00
2017-04-03T09:16:07.913Z,14.10
2017-04-03T09:17:13.489Z,14.10
2017-04-03T09:18:18.325Z,14.10
2017-04-03T09:19:24.521Z,14.20
2017-04-03T09:20:30.220Z,14.10
2017-04-03T09:21:35.285Z,14.10
2017-04-03T09:22:40.649Z,14.10
2017-04-03T09:23:47.055Z,14.20
2017-04-03T09:24:52.773Z,14.30
2017-04-03T09:25:58.501Z,14.20
2017-04-03T09:27:03.501Z,14.20
2017-04-03T09:28:09.081Z,14.20
2017-04-03T09:29:14.604Z,14.20
2017-04-03T09:30:20.968Z,14.30
2017-04-03T09:31:26.670Z,14.30
2017-04-03T09:32:31.669Z,14.30
2017-04-03T09:33:37.995Z,14.40
2017-04-03T09:34:43.784Z,14.30
2017-04-03T09:35:50.089Z,14.30
2017-04-03T09:36:54.785Z,14.30
2017-04-03T09:38:00.482Z,14.40
2017-04-03T09:39:06.253Z,14.40
2017-04-03T09:40:12.108Z,14.40
2017-04-03T09:41:16.937Z,14.40
2017-04-03T09:42:22.541Z,14.50
2017-04-03T09:43:28.107Z,14.60
2017-04-03T09:44:34.453Z,14.60
2017-04-03T09:45:39.368Z,14.60
2017-04-03T09:46:45.778Z,14.60
2017-04-03T09:47:50.690Z,14.60
2017-04-03T09:48:56.332Z,14.70
2017-04-03T09:50:01.734Z,14.70
2017-04-03T09:51:07.379Z,14.70
2017-04-03T09:52:13.765Z,14.80
2017-04-03T09:53:18.641Z,14.70
2017-04-03T09:54:25.075Z,14.80
2017-04-03T09:55:29.896Z,14.80
2017-04-03T09:56:36.202Z,14.80
2017-04-03T09:57:40.880Z,14.80
2017-04-03T09:58:46.536Z,14.90
2017-04-03T09:59:52.882Z,15.00
2017-04-03T10:00:58.340Z,15.00
2017-04-03T10:02:04.153Z,15.00
2017-04-03T10:03:09.640Z,15.00
2017-04-03T10:04:15.225Z,15.00
2017-04-03T10:05:21.073Z,15.10
2017-04-03T10:06:26.710Z,15.00
2017-04-03T10:07:32.541Z,15.00
2017-04-03T10:08:38.097Z,15.00
2017-04-03T10:09:43.657Z,15.10
2017-04-03T10:10:48.504Z,15.00
2017-04-03T10:11:54.921Z,15.10
2017-04-03T10:12:59.861Z,15.10
2017-04-03T10:14:05.269Z,15.20
2017-04-03T10:15:10.069Z,15.20
2017-04-03T10:16:15.572Z,15.30
2017-04-03T10:17:21.208Z,15.40
2017-04-03T10:18:26.838Z,15.40
2017-04-03T10:19:33.101Z,15.50
2017-04-03T10:20:38.114Z,15.50
2017-04-03T10:21:44.569Z,15.70
2017-04-03T10:22:50.150Z,15.80
2017-04-03T10:23:55.798Z,15.80
2017-04-03T10:25:00.854Z,15.70
2017-04-03T10:26:06.413Z,15.90
2017-04-03T10:27:12.897Z,16.00
2017-04-03T10:28:18.550Z,16.00
2017-04-03T10:29:24.973Z,16.10
2017-04-03T10:30:29.782Z,16.00
2017-04-03T10:31:35.297Z,16.10
2017-04-03T10:32:41.986Z,16.10
2017-04-03T10:33:46.724Z,16.00
2017-04-03T10:34:53.026Z,15.90
2017-04-03T10:35:58.685Z,16.00
2017-04-03T10:37:04.270Z,16.00
2017-04-03T10:38:10.725Z,16.00
2017-04-03T10:39:16.430Z,16.10
2017-04-03T10:40:21.271Z,16.00
2017-04-03T10:41:26.765Z,16.30
2017-04-03T10:42:32.421Z,16.30
2017-04-03T10:43:38.317Z,16.30
2017-04-03T10:44:43.306Z,16.20
2017-04-03T10:45:48.941Z,16.30
2017-04-03T10:46:55.955Z,16.40
2017-04-03T10:48:01.717Z,16.50
2017-04-03T10:49:15.869Z,16.50
2017-04-03T10:50:22.093Z,16.60
2017-04-03T10:51:27.102Z,16.60
2017-04-03T10:52:33.077Z,16.70
2017-04-03T10:53:39.041Z,16.70
2017-04-03T10:54:44.974Z,16.50
2017-04-03T10:55:49.798Z,16.50
2017-04-03T10:56:56.111Z,16.60
2017-04-03T10:58:01.817Z,16.60
2017-04-03T10:59:07.554Z,16.50
2017-04-03T11:00:14.209Z,16.40
2017-04-03T11:01:19.863Z,16.60
2017-04-03T11:02:25.430Z,16.60
2017-04-03T11:03:30.158Z,16.60
2017-04-03T11:04:35.622Z,16.60
2017-04-03T11:05:42.090Z,16.60
2017-04-03T11:06:47.067Z,16.60
2017-04-03T11:07:53.361Z,16.60
2017-04-03T11:08:58.873Z,16.60
2017-04-03T11:10:04.745Z,16.50
2017-04-03T11:11:10.338Z,16.50
2017-04-03T11:12:15.319Z,16.40
2017-04-03T11:13:20.998Z,16.50
2017-04-03T11:14:27.297Z,16.50
2017-04-03T11:15:32.949Z,16.40
2017-04-03T11:16:38.629Z,16.40
2017-04-03T11:17:43.510Z,16.40
2017-04-03T11:18:48.218Z,16.40
2017-04-03T11:19:53.658Z,16.30
2017-04-03T11:20:59.229Z,16.40
2017-04-03T11:22:04.357Z,16.40
2017-04-03T11:23:10.529Z,16.40
2017-04-03T11:24:15.373Z,16.40
2017-04-03T11:25:21.573Z,16.50
2017-04-03T11:26:26.581Z,16.50
2017-04-03T11:27:32.372Z,16.60
2017-04-03T11:28:38.630Z,16.70
2017-04-03T11:29:43.378Z,16.70
2017-04-03T11:30:49.773Z,16.90
2017-04-03T11:31:54.794Z,16.90
2017-04-03T11:33:01.225Z,16.90
2017-04-03T11:34:06.062Z,16.90
2017-04-03T11:35:12.402Z,17.00
2017-04-03T11:36:17.218Z,16.90
2017-04-03T11:37:22.721Z,17.00
2017-04-03T11:38:28.352Z,17.10
2017-04-03T11:39:34.004Z,17.20
2017-04-03T11:40:38.819Z,17.10
2017-04-03T11:41:45.330Z,17.10
2017-04-03T11:42:53.030Z,17.10
2017-04-03T11:44:04.028Z,17.10
2017-04-03T11:45:14.953Z,17.10
2017-04-03T11:46:26.201Z,17.00
2017-04-03T11:47:36.996Z,17.00
2017-04-03T11:48:47.561Z,17.00
2017-04-03T11:49:59.178Z,17.00
2017-04-03T11:51:10.514Z,16.80
2017-04-03T11:52:21.178Z,16.70
2017-04-03T11:53:32.124Z,16.50
2017-04-03T11:54:38.022Z,16.60
2017-04-03T11:55:43.816Z,16.30
2017-04-03T11:56:48.753Z,16.30
2017-04-03T11:57:54.272Z,16.30
2017-04-03T11:58:59.972Z,16.40
2017-04-03T12:00:06.333Z,16.50
2017-04-03T12:01:12.925Z,16.50
2017-04-03T12:02:18.649Z,16.50
2017-04-03T12:03:23.530Z,16.50
2017-04-03T12:04:29.809Z,16.70
2017-04-03T12:05:34.662Z,16.70
2017-04-03T12:06:40.377Z,16.70
2017-04-03T12:07:46.597Z,16.80
2017-04-03T12:08:51.586Z,16.80
2017-04-03T12:09:57.141Z,16.90
2017-04-03T12:11:02.682Z,16.90
2017-04-03T12:12:08.985Z,17.10
2017-04-03T12:13:14.674Z,16.90
2017-04-03T12:14:19.664Z,16.90
2017-04-03T12:15:25.985Z,17.00
2017-04-03T12:16:32.442Z,17.10
2017-04-03T12:17:38.357Z,17.20
2017-04-03T12:18:43.934Z,17.20
2017-04-03T12:19:49.624Z,17.30
2017-04-03T12:20:54.569Z,17.20
2017-04-03T12:22:00.989Z,17.50
2017-04-03T12:23:05.870Z,17.40
2017-04-03T12:24:12.232Z,17.50
2017-04-03T12:25:17.032Z,17.50
2017-04-03T12:26:22.750Z,17.50
2017-04-03T12:27:29.140Z,17.40
2017-04-03T12:28:35.852Z,17.30
2017-04-03T12:29:39.749Z,17.40
2017-04-03T12:30:44.176Z,17.40
2017-04-03T12:31:50.229Z,17.30
2017-04-03T12:32:56.013Z,17.20
2017-04-03T12:34:01.809Z,17.20
2017-04-03T12:35:08.318Z,17.20
2017-04-03T12:36:13.946Z,17.10
2017-04-03T12:37:19.502Z,16.90
2017-04-03T12:38:25.152Z,16.90
2017-04-03T12:39:30.801Z,17.00
2017-04-03T12:40:36.380Z,16.90
2017-04-03T12:41:42.848Z,16.90
2017-04-03T12:42:48.626Z,16.90
2017-04-03T12:43:54.198Z,16.90
2017-04-03T12:44:59.164Z,16.90
2017-04-03T12:46:04.702Z,16.90
2017-04-03T12:47:10.324Z,16.90
2017-04-03T12:48:15.940Z,16.90
2017-04-03T12:49:22.372Z,17.00
2017-04-03T12:50:28.196Z,17.00
2017-04-03T12:51:33.969Z,17.00
2017-04-03T12:52:40.348Z,17.10
2017-04-03T12:53:45.187Z,17.10
2017-04-03T12:54:50.808Z,17.20
2017-04-03T12:55:56.438Z,17.30
2017-04-03T12:57:02.949Z,17.40
2017-04-03T12:58:08.702Z,17.50
2017-04-03T12:59:13.395Z,17.40
2017-04-03T13:00:19.802Z,17.50
2017-04-03T13:01:24.618Z,17.40
2017-04-03T13:02:30.202Z,17.40
2017-04-03T13:03:35.904Z,17.30
2017-04-03T13:04:41.385Z,17.30
2017-04-03T13:05:47.646Z,17.30
2017-04-03T13:06:52.466Z,17.20
2017-04-03T13:07:58.008Z,17.10
2017-04-03T13:09:03.780Z,17.10
2017-04-03T13:10:10.110Z,17.10
2017-04-03T13:11:15.606Z,17.10
2017-04-03T13:12:20.587Z,17.00
2017-04-03T13:13:26.869Z,17.00
2017-04-03T13:14:31.647Z,17.00
2017-04-03T13:15:37.265Z,17.20
2017-04-03T13:16:41.967Z,17.20
2017-04-03T13:17:47.690Z,17.30
2017-04-03T13:18:53.955Z,17.30
2017-04-03T13:19:58.805Z,17.30
2017-04-03T13:21:05.252Z,17.30
2017-04-03T13:22:10.052Z,17.20
2017-04-03T13:23:15.805Z,17.30
2017-04-03T13:24:22.209Z,17.60
2017-04-03T13:25:27.781Z,17.60
2017-04-03T13:26:33.306Z,17.60
2017-04-03T13:27:38.908Z,17.60
2017-04-03T13:28:45.733Z,17.60
2017-04-03T13:29:50.524Z,17.60
2017-04-03T13:30:56.053Z,17.80
2017-04-03T13:32:02.296Z,17.80
2017-04-03T13:33:08.032Z,17.70
2017-04-03T13:34:13.717Z,17.80
2017-04-03T13:35:19.398Z,17.90
2017-04-03T13:36:24.973Z,18.10
2017-04-03T13:37:29.846Z,18.00
2017-04-03T13:38:36.240Z,18.30
2017-04-03T13:39:41.181Z,18.30
2017-04-03T13:40:47.486Z,18.50
2017-04-03T13:41:52.417Z,18.50
2017-04-03T13:42:58.885Z,18.60
2017-04-03T13:44:03.840Z,18.60
2017-04-03T13:45:09.320Z,18.50
2017-04-03T13:46:14.369Z,18.50
2017-04-03T13:47:20.040Z,18.40
2017-04-03T13:48:25.537Z,18.40
2017-04-03T13:49:31.914Z,18.70
2017-04-03T13:50:37.040Z,18.70
2017-04-03T13:51:43.397Z,19.20
2017-04-03T13:52:49.117Z,19.30
2017-04-03T13:53:54.005Z,19.30
2017-04-03T13:54:59.433Z,19.50
2017-04-03T13:56:05.273Z,19.50
2017-04-03T13:57:11.725Z,19.60
2017-04-03T13:58:16.549Z,19.60
2017-04-03T13:59:22.930Z,19.60
2017-04-03T14:00:27.670Z,19.50
2017-04-03T14:01:33.994Z,19.60
2017-04-03T14:02:39.745Z,19.60
2017-04-03T14:03:44.696Z,19.60
2017-04-03T14:04:50.230Z,19.80
2017-04-03T14:05:55.881Z,19.80
2017-04-03T14:07:01.617Z,19.90
2017-04-03T14:08:07.809Z,19.90
2017-04-03T14:09:13.393Z,20.00
2017-04-03T14:10:18.985Z,20.00
2017-04-03T14:11:24.601Z,20.00
2017-04-03T14:12:30.189Z,20.10
2017-04-03T14:13:34.964Z,20.10
2017-04-03T14:14:41.393Z,20.30